createdAt,value
2022-08-01T00:01:08.363Z,3.80
2022-08-01T00:03:44.774Z,4.40
2022-08-01T00:06:13.273Z,2.43
2022-08-01T00:08:48.695Z,2.70
2022-08-01T00:11:17.113Z,1.67
2022-08-01T00:13:51.704Z,2.47
2022-08-01T00:16:20.299Z,3.83
2022-08-01T00:18:56.814Z,2.90
2022-08-01T00:21:25.410Z,1.80
2022-08-01T00:24:00.775Z,3.93
2022-08-01T00:26:29.277Z,3.50
2022-08-01T00:29:11.636Z,1.63
2022-08-01T00:31:59.275Z,2.37
2022-08-01T00:34:35.721Z,4.00
2022-08-01T00:37:04.299Z,4.43
2022-08-01T00:39:40.019Z,3.50
2022-08-01T00:42:09.729Z,3.80
2022-08-01T00:44:44.833Z,4.30
2022-08-01T00:47:13.648Z,2.87
2022-08-01T00:49:49.846Z,2.67
2022-08-01T00:52:18.333Z,4.97
2022-08-01T00:54:53.745Z,4.70
2022-08-01T00:58:03.012Z,3.40
2022-08-01T01:00:18.833Z,4.43
2022-08-01T01:02:55.583Z,6.67
2022-08-01T01:05:35.756Z,4.10
2022-08-01T01:08:10.225Z,3.50
2022-08-01T01:10:51.834Z,4.00
2022-08-01T01:13:25.861Z,4.00
2022-08-01T01:16:06.841Z,3.27
2022-08-01T01:18:41.175Z,6.87
2022-08-01T01:21:45.861Z,4.17
2022-08-01T01:24:30.539Z,4.40
2022-08-01T01:27:15.774Z,4.53
2022-08-01T01:30:00.539Z,3.73
2022-08-01T01:32:42.130Z,3.87
2022-08-01T01:35:14.073Z,3.53
2022-08-01T01:37:51.777Z,5.27
2022-08-01T01:40:22.505Z,4.83
2022-08-01T01:42:58.810Z,5.00
2022-08-01T01:45:29.971Z,4.10
2022-08-01T01:48:07.746Z,4.50
2022-08-01T01:50:38.696Z,4.67
2022-08-01T01:53:15.049Z,4.40
2022-08-01T01:55:49.575Z,5.57
2022-08-01T01:58:27.148Z,5.63
2022-08-01T02:00:59.635Z,4.70
2022-08-01T02:03:39.919Z,3.70
2022-08-01T02:06:08.942Z,6.13
2022-08-01T02:08:45.917Z,4.70
2022-08-01T02:11:20.585Z,3.60
2022-08-01T02:14:00.822Z,4.30
2022-08-01T02:16:32.605Z,5.00
2022-08-01T02:19:07.807Z,3.07
2022-08-01T02:21:42.572Z,5.07
2022-08-01T02:24:22.928Z,5.77
2022-08-01T02:27:10.328Z,4.57
2022-08-01T02:30:00.834Z,3.97
2022-08-01T02:32:38.658Z,6.00
2022-08-01T02:35:16.820Z,4.13
2022-08-01T02:37:48.002Z,4.57
2022-08-01T02:40:25.157Z,3.57
2022-08-01T02:42:57.166Z,4.57
2022-08-01T02:45:35.820Z,5.43
2022-08-01T02:48:15.961Z,6.00
2022-08-01T02:50:46.452Z,5.67
2022-08-01T02:53:23.855Z,6.03
2022-08-01T02:56:14.491Z,4.87
2022-08-01T02:58:51.178Z,4.83
2022-08-01T03:01:23.515Z,4.57
2022-08-01T03:04:04.175Z,5.20
2022-08-01T03:06:33.878Z,6.67
2022-08-01T03:09:10.948Z,5.50
2022-08-01T03:11:44.118Z,5.03
2022-08-01T03:14:20.884Z,6.10
2022-08-01T03:16:53.782Z,4.03
2022-08-01T03:19:34.223Z,5.30
2022-08-01T03:22:05.449Z,6.13
2022-08-01T03:24:41.951Z,7.73
2022-08-01T03:27:18.723Z,9.50
2022-08-01T03:30:01.970Z,9.43
2022-08-01T03:32:32.204Z,11.63
2022-08-01T03:35:08.898Z,14.30
2022-08-01T03:38:13.028Z,17.30
2022-08-01T03:40:45.019Z,19.30
2022-08-01T03:43:19.473Z,18.23
2022-08-01T03:45:58.014Z,19.33
2022-08-01T03:48:33.405Z,19.30
2022-08-01T03:51:10.974Z,19.90
2022-08-01T03:53:42.642Z,20.00
2022-08-01T03:56:20.044Z,18.73
2022-08-01T03:58:49.981Z,18.27
2022-08-01T04:01:25.965Z,20.87
2022-08-01T04:03:54.907Z,19.63
2022-08-01T04:06:31.006Z,24.00
2022-08-01T04:08:59.549Z,16.90
2022-08-01T04:11:36.919Z,17.13
2022-08-01T04:14:09.232Z,18.30
2022-08-01T04:16:44.896Z,18.50
2022-08-01T04:19:14.050Z,17.33
2022-08-01T04:21:51.027Z,18.17
2022-08-01T04:24:21.893Z,19.97
2022-08-01T04:26:59.934Z,18.20
2022-08-01T04:29:36.579Z,18.20
2022-08-01T04:32:13.269Z,16.90
2022-08-01T04:34:44.152Z,16.83
2022-08-01T04:37:24.247Z,17.27
2022-08-01T04:39:55.614Z,22.83
2022-08-01T04:42:33.574Z,17.60
2022-08-01T04:45:02.965Z,19.93
2022-08-01T04:47:39.050Z,21.20
2022-08-01T04:50:09.533Z,16.03
2022-08-01T04:52:49.923Z,20.83
2022-08-01T04:55:19.249Z,18.40
2022-08-01T04:57:56.087Z,18.77
2022-08-01T05:00:24.690Z,18.73
2022-08-01T05:02:59.912Z,21.87
2022-08-01T05:05:28.606Z,17.77
2022-08-01T05:08:05.295Z,18.27
2022-08-01T05:10:34.178Z,17.17
2022-08-01T05:13:08.990Z,21.03
2022-08-01T05:15:38.025Z,18.63
2022-08-01T05:18:13.101Z,18.37
2022-08-01T05:20:43.928Z,20.27
2022-08-01T05:23:30.957Z,20.70
2022-08-01T05:26:09.488Z,21.17
2022-08-01T05:28:51.087Z,21.00
2022-08-01T05:31:26.544Z,22.83
2022-08-01T05:34:02.139Z,20.30
2022-08-01T05:36:30.647Z,19.10
2022-08-01T05:39:08.125Z,20.73
2022-08-01T05:41:37.858Z,19.17
2022-08-01T05:44:13.151Z,17.77
2022-08-01T05:46:42.000Z,19.63
2022-08-01T05:49:17.083Z,20.73
2022-08-01T05:51:45.718Z,20.30
2022-08-01T05:54:22.328Z,15.43
2022-08-01T05:56:50.574Z,16.73
2022-08-01T05:59:26.116Z,17.87
2022-08-01T06:01:54.690Z,16.20
2022-08-01T06:04:30.358Z,15.20
2022-08-01T06:06:59.084Z,16.23
2022-08-01T06:09:35.073Z,18.90
2022-08-01T06:12:04.630Z,16.77
2022-08-01T06:14:40.366Z,17.87
2022-08-01T06:17:08.974Z,16.57
2022-08-01T06:19:44.120Z,16.43
2022-08-01T06:22:12.799Z,13.13
2022-08-01T06:24:49.059Z,17.60
2022-08-01T06:27:37.124Z,15.93
2022-08-01T06:30:19.051Z,13.90
2022-08-01T06:32:55.386Z,17.47
2022-08-01T06:35:23.748Z,15.83
2022-08-01T06:37:58.990Z,15.10
2022-08-01T06:40:29.126Z,13.43
2022-08-01T06:43:04.101Z,11.80
2022-08-01T06:45:32.669Z,10.67
2022-08-01T06:48:08.403Z,10.93
2022-08-01T06:50:38.196Z,10.70
2022-08-01T06:53:13.097Z,11.83
2022-08-01T06:55:42.814Z,11.87
2022-08-01T06:58:18.373Z,12.63
2022-08-01T07:00:47.106Z,9.80
2022-08-01T07:03:22.417Z,9.83
2022-08-01T07:05:50.930Z,10.20
2022-08-01T07:08:26.095Z,8.70
2022-08-01T07:10:57.035Z,8.27
2022-08-01T07:13:43.749Z,10.33
2022-08-01T07:16:12.929Z,8.97
2022-08-01T07:18:48.098Z,7.33
2022-08-01T07:21:39.000Z,11.50
2022-08-01T07:24:13.532Z,7.70
2022-08-01T07:26:52.164Z,8.97
2022-08-01T07:29:36.137Z,6.53
2022-08-01T07:32:04.880Z,8.53
2022-08-01T07:34:40.138Z,7.60
2022-08-01T07:37:08.583Z,7.03
2022-08-01T07:39:43.454Z,5.57
2022-08-01T07:42:13.922Z,5.90
2022-08-01T07:44:49.251Z,6.87
2022-08-01T07:47:17.824Z,6.80
2022-08-01T07:49:53.239Z,8.07
2022-08-01T07:52:21.985Z,7.13
2022-08-01T07:54:57.290Z,7.20
2022-08-01T07:57:27.755Z,6.37
2022-08-01T08:00:02.251Z,6.47
2022-08-01T08:02:30.793Z,6.97
2022-08-01T08:05:06.225Z,5.40
2022-08-01T08:07:35.760Z,7.03
2022-08-01T08:10:11.259Z,5.57
2022-08-01T08:12:41.550Z,4.83
2022-08-01T08:15:19.257Z,3.33
2022-08-01T08:17:50.273Z,3.07
2022-08-01T08:20:32.493Z,3.03
2022-08-01T08:23:01.073Z,3.63
2022-08-01T08:25:36.492Z,3.20
2022-08-01T08:28:28.227Z,3.83
2022-08-01T08:31:24.984Z,2.20
2022-08-01T08:33:59.499Z,2.40
2022-08-01T08:36:34.272Z,1.47
2022-08-01T08:39:03.026Z,1.93
2022-08-01T08:41:39.283Z,2.77
2022-08-01T08:44:10.644Z,1.60
2022-08-01T08:46:50.292Z,2.43
2022-08-01T08:49:21.488Z,2.30
2022-08-01T08:51:58.179Z,2.80
2022-08-01T08:54:29.131Z,2.67
2022-08-01T08:57:08.190Z,2.13
2022-08-01T08:59:39.271Z,4.47
2022-08-01T09:02:14.608Z,2.00
2022-08-01T09:04:43.971Z,1.80
2022-08-01T09:07:19.319Z,1.50
2022-08-01T09:09:55.232Z,1.20
2022-08-01T09:12:30.144Z,1.37
2022-08-01T09:14:59.991Z,1.97
2022-08-01T09:17:35.296Z,1.60
2022-08-01T09:20:03.708Z,1.50
2022-08-01T09:22:45.071Z,0.97
2022-08-01T09:25:16.422Z,3.07
2022-08-01T09:27:51.267Z,1.10
2022-08-01T09:30:28.978Z,1.50
2022-08-01T09:33:11.249Z,1.27
2022-08-01T09:35:56.172Z,0.90
2022-08-01T09:38:34.229Z,0.90
2022-08-01T09:41:03.443Z,3.07
2022-08-01T09:43:40.211Z,3.07
2022-08-01T09:46:13.639Z,1.10
2022-08-01T09:49:07.395Z,1.23
2022-08-01T09:51:59.157Z,0.90
2022-08-01T09:54:41.352Z,1.10
2022-08-01T09:57:11.997Z,1.40
2022-08-01T09:59:59.025Z,1.93
2022-08-01T10:02:34.380Z,6.03
2022-08-01T10:05:11.395Z,2.00
2022-08-01T10:08:00.780Z,4.13
2022-08-01T10:10:37.296Z,9.50
2022-08-01T10:13:07.064Z,1.40
2022-08-01T10:15:45.363Z,2.00
2022-08-01T10:18:26.255Z,1.00
2022-08-01T10:21:03.226Z,1.53
2022-08-01T10:23:41.176Z,1.20
2022-08-01T10:26:18.259Z,1.07
2022-08-01T10:29:45.340Z,1.00
2022-08-01T10:32:05.646Z,0.80
2022-08-01T10:34:37.142Z,2.03
2022-08-01T10:37:13.268Z,0.90
2022-08-01T10:39:42.686Z,1.95
2022-08-01T10:42:20.388Z,1.00
2022-08-01T10:44:49.662Z,0.80
2022-08-01T10:47:49.715Z,1.10
2022-08-01T10:50:26.068Z,0.80
2022-08-01T10:53:24.126Z,0.60
2022-08-01T10:56:04.061Z,2.08
2022-08-01T10:58:44.727Z,1.67
2022-08-01T11:01:25.562Z,0.85
2022-08-01T11:04:16.513Z,0.70
2022-08-01T11:06:59.800Z,1.15
2022-08-01T11:09:40.497Z,1.27
2022-08-01T11:12:21.240Z,0.80
2022-08-01T11:15:33.350Z,0.70
2022-08-01T11:18:04.530Z,0.57
2022-08-01T11:20:42.560Z,1.38
2022-08-01T11:23:23.523Z,1.27
2022-08-01T11:26:29.001Z,1.33
2022-08-01T11:29:30.493Z,2.40
2022-08-01T11:32:29.578Z,4.18
2022-08-01T11:35:05.356Z,0.93
2022-08-01T11:37:36.110Z,2.67
2022-08-01T11:40:28.448Z,2.13
2022-08-01T11:43:20.924Z,1.70
2022-08-01T11:45:56.374Z,1.88
2022-08-01T11:48:29.296Z,4.45
2022-08-01T11:51:06.475Z,1.00
2022-08-01T11:53:38.657Z,1.00
2022-08-01T11:56:17.589Z,4.20
2022-08-01T11:58:46.262Z,1.40
2022-08-01T12:01:22.492Z,2.58
2022-08-01T12:03:58.578Z,2.47
2022-08-01T12:06:37.690Z,2.25
2022-08-01T12:09:24.506Z,4.70
2022-08-01T12:11:59.499Z,2.00
2022-08-01T12:14:28.109Z,2.42
2022-08-01T12:17:03.670Z,2.15
2022-08-01T12:19:34.137Z,2.13
2022-08-01T12:22:18.383Z,4.18
2022-08-01T12:24:46.845Z,1.63
2022-08-01T12:27:33.704Z,3.13
2022-08-01T12:30:10.148Z,2.03
2022-08-01T12:32:46.712Z,3.17
2022-08-01T12:35:18.711Z,4.18
2022-08-01T12:37:55.449Z,2.78
2022-08-01T12:40:25.709Z,3.40
2022-08-01T12:43:03.515Z,3.47
2022-08-01T12:45:35.422Z,2.85
2022-08-01T12:48:11.409Z,1.88
2022-08-01T12:50:45.829Z,2.80
2022-08-01T12:53:22.915Z,2.13
2022-08-01T12:55:58.582Z,4.40
2022-08-01T12:58:40.723Z,1.98
2022-08-01T13:01:11.110Z,3.70
2022-08-01T13:03:46.494Z,2.58
2022-08-01T13:06:18.244Z,2.10
2022-08-01T13:08:54.431Z,1.98
2022-08-01T13:11:22.885Z,2.38
2022-08-01T13:14:00.788Z,2.08
2022-08-01T13:16:49.073Z,2.95
2022-08-01T13:19:24.538Z,2.60
2022-08-01T13:21:58.613Z,3.97
2022-08-01T13:24:35.573Z,3.95
2022-08-01T13:27:06.103Z,2.65
2022-08-01T13:29:49.541Z,2.17
2022-08-01T13:32:29.203Z,3.83
2022-08-01T13:35:10.619Z,2.53
2022-08-01T13:37:41.263Z,4.82
2022-08-01T13:40:18.521Z,3.67
2022-08-01T13:42:47.070Z,4.78
2022-08-01T13:45:22.664Z,2.17
2022-08-01T13:48:03.899Z,2.53
2022-08-01T13:50:57.377Z,2.00
2022-08-01T13:53:36.816Z,2.72
2022-08-01T13:56:12.758Z,1.33
2022-08-01T13:58:41.558Z,3.22
2022-08-01T14:01:16.538Z,2.08
2022-08-01T14:03:45.243Z,2.28
2022-08-01T14:06:20.866Z,2.05
2022-08-01T14:08:51.269Z,2.38
2022-08-01T14:11:26.662Z,3.05
2022-08-01T14:13:59.441Z,4.38
2022-08-01T14:16:34.480Z,2.75
2022-08-01T14:19:03.965Z,4.43
2022-08-01T14:21:39.518Z,2.00
2022-08-01T14:24:10.752Z,3.70
2022-08-01T14:26:45.495Z,1.50
2022-08-01T14:29:19.763Z,1.63
2022-08-01T14:32:01.503Z,2.47
2022-08-01T14:34:30.077Z,1.63
2022-08-01T14:37:05.702Z,1.52
2022-08-01T14:39:38.586Z,2.08
2022-08-01T14:42:13.534Z,1.40
2022-08-01T14:44:44.862Z,3.45
2022-08-01T14:47:24.668Z,3.10
2022-08-01T14:49:53.347Z,1.65
2022-08-01T14:52:28.556Z,2.92
2022-08-01T14:54:58.292Z,3.55
2022-08-01T14:57:33.555Z,1.88
2022-08-01T15:00:01.926Z,3.10
2022-08-01T15:02:36.530Z,2.92
2022-08-01T15:05:05.303Z,2.83
2022-08-01T15:07:42.066Z,3.35
2022-08-01T15:10:22.630Z,4.68
2022-08-01T15:12:57.588Z,4.07
2022-08-01T15:15:26.188Z,2.63
2022-08-01T15:18:01.574Z,1.83
2022-08-01T15:20:31.096Z,3.53
2022-08-01T15:23:05.589Z,2.00
2022-08-01T15:25:41.472Z,4.00
2022-08-01T15:28:17.887Z,2.65
2022-08-01T15:30:53.502Z,2.97
2022-08-01T15:33:35.717Z,2.17
2022-08-01T15:36:04.280Z,1.73
2022-08-01T15:38:39.561Z,1.73
2022-08-01T15:41:09.702Z,2.28
2022-08-01T15:43:44.940Z,2.80
2022-08-01T15:46:13.625Z,2.53
2022-08-01T15:48:48.621Z,2.47
2022-08-01T15:51:17.379Z,1.35
2022-08-01T15:53:53.645Z,2.05
2022-08-01T15:56:23.421Z,2.03
2022-08-01T15:58:58.891Z,3.38
2022-08-01T16:01:28.104Z,2.65
2022-08-01T16:04:03.621Z,3.85
2022-08-01T16:06:32.329Z,2.28
2022-08-01T16:09:07.580Z,3.65
2022-08-01T16:11:42.549Z,2.90
2022-08-01T16:14:19.702Z,2.20
2022-08-01T16:16:48.471Z,2.45
2022-08-01T16:19:24.071Z,2.58
2022-08-01T16:21:53.235Z,2.55
2022-08-01T16:24:27.947Z,3.22
2022-08-01T16:26:58.454Z,2.20
2022-08-01T16:29:37.982Z,3.90
2022-08-01T16:32:25.924Z,1.88
2022-08-01T16:35:09.637Z,2.88
2022-08-01T16:37:38.580Z,2.28
2022-08-01T16:40:14.539Z,2.47
2022-08-01T16:42:44.394Z,3.83
2022-08-01T16:45:21.646Z,3.35
2022-08-01T16:47:50.195Z,1.85
2022-08-01T16:50:28.708Z,3.33
2022-08-01T16:52:57.625Z,3.28
2022-08-01T16:55:49.575Z,4.93
2022-08-01T16:58:27.541Z,5.23
2022-08-01T17:02:03.328Z,3.00
2022-08-01T17:03:53.032Z,3.23
2022-08-01T17:06:28.971Z,3.65
2022-08-01T17:08:57.591Z,2.97
2022-08-01T17:11:32.768Z,3.00
2022-08-01T17:14:02.682Z,2.83
2022-08-01T17:16:37.776Z,4.72
2022-08-01T17:19:06.320Z,2.73
2022-08-01T17:21:41.768Z,4.23
2022-08-01T17:24:11.874Z,3.20
2022-08-01T17:26:52.032Z,2.07
2022-08-01T17:29:43.825Z,2.83
2022-08-01T17:32:20.691Z,2.50
2022-08-01T17:34:50.199Z,3.47
2022-08-01T17:37:25.988Z,3.03
2022-08-01T17:39:54.471Z,2.50
2022-08-01T17:42:30.705Z,2.37
2022-08-01T17:45:00.570Z,2.10
2022-08-01T17:47:50.390Z,2.87
2022-08-01T17:50:19.466Z,3.90
2022-08-01T17:52:54.724Z,5.60
2022-08-01T17:55:53.922Z,3.20
2022-08-01T17:58:33.087Z,3.00
2022-08-01T18:01:16.734Z,2.83
2022-08-01T18:03:45.582Z,5.67
2022-08-01T18:06:24.100Z,2.37
2022-08-01T18:09:01.868Z,3.40
2022-08-01T18:11:37.339Z,2.43
2022-08-01T18:14:12.722Z,3.67
2022-08-01T18:16:42.856Z,2.73
2022-08-01T18:19:17.746Z,4.43
2022-08-01T18:21:46.149Z,3.07
2022-08-01T18:24:22.733Z,5.77
2022-08-01T18:26:51.810Z,4.00
2022-08-01T18:29:48.170Z,3.23
2022-08-01T18:32:29.728Z,4.27
2022-08-01T18:34:58.426Z,3.53
2022-08-01T18:37:35.228Z,4.47
2022-08-01T18:40:13.014Z,3.77
2022-08-01T18:42:51.876Z,3.70
2022-08-01T18:45:20.960Z,4.37
2022-08-01T18:47:58.079Z,2.80
2022-08-01T18:50:27.350Z,3.80
2022-08-01T18:53:02.864Z,4.03
2022-08-01T18:55:31.549Z,2.67
2022-08-01T18:58:07.095Z,3.30
2022-08-01T19:00:35.531Z,10.00
2022-08-01T19:03:12.077Z,5.20
2022-08-01T19:05:40.711Z,4.13
2022-08-01T19:08:15.798Z,3.83
2022-08-01T19:10:44.646Z,4.27
2022-08-01T19:13:20.091Z,3.87
2022-08-01T19:15:48.518Z,4.77
2022-08-01T19:18:24.804Z,6.53
2022-08-01T19:20:53.367Z,6.10
2022-08-01T19:23:45.960Z,5.07
2022-08-01T19:26:15.996Z,4.90
2022-08-01T19:28:55.132Z,5.13
2022-08-01T19:31:33.671Z,5.83
2022-08-01T19:34:13.769Z,5.67
2022-08-01T19:36:42.513Z,5.83
2022-08-01T19:39:17.897Z,3.70
2022-08-01T19:41:47.617Z,3.83
2022-08-01T19:44:23.921Z,3.77
2022-08-01T19:46:54.167Z,3.93
2022-08-01T19:49:31.899Z,4.00
2022-08-01T19:52:03.149Z,3.67
2022-08-01T19:54:42.922Z,4.43
2022-08-01T19:57:14.946Z,4.03
2022-08-01T19:59:53.170Z,5.27
2022-08-01T20:02:21.768Z,4.23
2022-08-01T20:04:57.945Z,4.30
2022-08-01T20:07:26.395Z,5.27
2022-08-01T20:10:02.954Z,3.17
2022-08-01T20:12:31.944Z,6.80
2022-08-01T20:15:06.822Z,5.97
2022-08-01T20:17:35.555Z,5.73
2022-08-01T20:20:13.978Z,4.70
2022-08-01T20:22:43.082Z,5.27
2022-08-01T20:25:18.851Z,4.40
2022-08-01T20:27:48.921Z,5.67
2022-08-01T20:30:33.260Z,4.47
2022-08-01T20:33:08.693Z,4.27
2022-08-01T20:35:51.945Z,7.97
2022-08-01T20:38:24.193Z,5.20
2022-08-01T20:41:00.213Z,5.17
2022-08-01T20:43:28.898Z,4.90
2022-08-01T20:46:04.806Z,4.77
2022-08-01T20:48:33.961Z,5.67
2022-08-01T20:51:23.885Z,8.60
2022-08-01T20:53:53.961Z,8.77
2022-08-01T20:56:43.991Z,9.00
2022-08-01T20:59:56.311Z,5.90
2022-08-01T21:02:16.887Z,7.17
2022-08-01T21:04:57.437Z,5.73
2022-08-01T21:07:35.896Z,8.67
2022-08-01T21:10:08.053Z,6.57
2022-08-01T21:12:51.921Z,6.57
2022-08-01T21:15:30.883Z,6.83
2022-08-01T21:18:09.902Z,4.50
2022-08-01T21:20:42.119Z,6.63
2022-08-01T21:23:38.878Z,3.53
2022-08-01T21:26:12.440Z,8.63
2022-08-01T21:28:54.464Z,6.17
2022-08-01T21:31:40.392Z,5.17
2022-08-01T21:34:16.289Z,4.73
2022-08-01T21:36:47.221Z,5.20
2022-08-01T21:39:23.909Z,5.20
2022-08-01T21:41:56.605Z,5.70
2022-08-01T21:44:42.061Z,5.23
2022-08-01T21:47:11.946Z,6.03
2022-08-01T21:49:47.931Z,4.23
2022-08-01T21:52:21.518Z,3.80
2022-08-01T21:55:10.797Z,5.80
2022-08-01T21:58:08.183Z,4.17
2022-08-01T22:00:47.949Z,6.53
2022-08-01T22:03:25.743Z,4.13
2022-08-01T22:06:02.916Z,3.83
2022-08-01T22:08:35.967Z,6.53
2022-08-01T22:11:15.931Z,8.03
2022-08-01T22:13:44.391Z,2.83
2022-08-01T22:16:22.039Z,4.87
2022-08-01T22:18:50.995Z,3.93
2022-08-01T22:21:25.936Z,4.00
2022-08-01T22:23:55.309Z,5.67
2022-08-01T22:26:33.368Z,3.53
2022-08-01T22:29:02.850Z,4.60
2022-08-01T22:31:45.087Z,4.00
2022-08-01T22:34:16.162Z,3.83
2022-08-01T22:36:51.914Z,6.90
2022-08-01T22:39:22.125Z,4.57
2022-08-01T22:42:04.133Z,5.83
2022-08-01T22:44:42.965Z,4.37
2022-08-01T22:47:25.157Z,4.20
2022-08-01T22:50:02.088Z,4.03
2022-08-01T22:52:39.211Z,3.97
2022-08-01T22:55:09.532Z,4.50
2022-08-01T22:57:52.018Z,5.73
2022-08-01T23:00:21.038Z,5.00
2022-08-01T23:03:02.135Z,3.80
2022-08-01T23:05:32.024Z,3.77
2022-08-01T23:08:14.892Z,4.47
2022-08-01T23:10:44.704Z,3.43
2022-08-01T23:13:22.991Z,3.20
2022-08-01T23:15:52.544Z,3.50
2022-08-01T23:18:29.103Z,5.87
2022-08-01T23:20:59.735Z,5.23
2022-08-01T23:23:37.391Z,3.53
2022-08-01T23:26:34.362Z,3.60
2022-08-01T23:29:11.015Z,5.07
2022-08-01T23:32:00.216Z,3.43
2022-08-01T23:34:41.053Z,6.50
2022-08-01T23:37:09.631Z,4.63
2022-08-01T23:39:45.251Z,5.87
2022-08-01T23:42:14.989Z,5.07
2022-08-01T23:44:51.062Z,4.60
2022-08-01T23:47:19.788Z,6.17
2022-08-01T23:49:55.086Z,3.97
2022-08-01T23:52:23.537Z,3.53
2022-08-01T23:55:11.566Z,4.27
2022-08-01T23:57:44.146Z,4.47
